sensor_id;sensor_type;location;lat;lon;timestamp;P1;durP1;ratioP1;P2;durP2;ratioP2
62990;SDS011;49084;48.204;16.202;2023-05-10T00:01:58;3.30;;;3.00;;
62990;SDS011;49084;48.204;16.202;2023-05-10T00:04:23;4.70;;;3.10;;
62990;SDS011;49084;48.204;16.202;2023-05-10T00:06:52;3.97;;;3.10;;
62990;SDS011;49084;48.204;16.202;2023-05-10T00:09:18;5.60;;;2.70;;
62990;SDS011;49084;48.204;16.202;2023-05-10T00:11:43;4.07;;;3.08;;
62990;SDS011;49084;48.204;16.202;2023-05-10T00:14:09;3.17;;;2.88;;
62990;SDS011;49084;48.204;16.202;2023-05-10T00:16:35;3.95;;;2.80;;
62990;SDS011;49084;48.204;16.202;2023-05-10T00:19:00;6.65;;;2.70;;
62990;SDS011;49084;48.204;16.202;2023-05-10T00:21:26;4.05;;;2.90;;
62990;SDS011;49084;48.204;16.202;2023-05-10T00:23:53;6.25;;;2.75;;
62990;SDS011;49084;48.204;16.202;2023-05-10T00:26:19;3.00;;;2.47;;
62990;SDS011;49084;48.204;16.202;2023-05-10T00:28:45;3.53;;;2.53;;
62990;SDS011;49084;48.204;16.202;2023-05-10T00:31:10;2.60;;;2.40;;
62990;SDS011;49084;48.204;16.202;2023-05-10T00:33:36;4.63;;;3.15;;
62990;SDS011;49084;48.204;16.202;2023-05-10T00:36:02;5.88;;;3.05;;
62990;SDS011;49084;48.204;16.202;2023-05-10T00:38:27;4.45;;;2.97;;
62990;SDS011;49084;48.204;16.202;2023-05-10T00:40:53;3.47;;;2.67;;
62990;SDS011;49084;48.204;16.202;2023-05-10T00:43:19;4.47;;;2.58;;
62990;SDS011;49084;48.204;16.202;2023-05-10T00:45:44;3.85;;;2.70;;
62990;SDS011;49084;48.204;16.202;2023-05-10T00:48:10;5.40;;;2.67;;
62990;SDS011;49084;48.204;16.202;2023-05-10T00:50:36;4.43;;;2.92;;
62990;SDS011;49084;48.204;16.202;2023-05-10T00:53:02;3.67;;;2.90;;
62990;SDS011;49084;48.204;16.202;2023-05-10T00:55:28;4.35;;;2.90;;
62990;SDS011;49084;48.204;16.202;2023-05-10T00:57:54;9.45;;;2.97;;
62990;SDS011;49084;48.204;16.202;2023-05-10T01:00:21;6.68;;;3.15;;
62990;SDS011;49084;48.204;16.202;2023-05-10T01:02:46;3.05;;;2.67;;
62990;SDS011;49084;48.204;16.202;2023-05-10T01:05:12;4.05;;;2.53;;
62990;SDS011;49084;48.204;16.202;2023-05-10T01:07:39;6.32;;;2.85;;
62990;SDS011;49084;48.204;16.202;2023-05-10T01:10:05;5.68;;;2.75;;
62990;SDS011;49084;48.204;16.202;2023-05-10T01:12:33;3.30;;;2.72;;
62990;SDS011;49084;48.204;16.202;2023-05-10T01:15:05;6.15;;;3.13;;
62990;SDS011;49084;48.204;16.202;2023-05-10T01:17:36;5.13;;;2.25;;
62990;SDS011;49084;48.204;16.202;2023-05-10T01:20:04;4.20;;;2.60;;
62990;SDS011;49084;48.204;16.202;2023-05-10T01:22:50;3.47;;;2.60;;
62990;SDS011;49084;48.204;16.202;2023-05-10T01:28:21;3.00;;;2.58;;
62990;SDS011;49084;48.204;16.202;2023-05-10T01:31:13;9.87;;;2.83;;
62990;SDS011;49084;48.204;16.202;2023-05-10T01:34:02;3.83;;;2.75;;
62990;SDS011;49084;48.204;16.202;2023-05-10T01:36:38;3.60;;;2.75;;
62990;SDS011;49084;48.204;16.202;2023-05-10T01:39:28;2.75;;;2.28;;
62990;SDS011;49084;48.204;16.202;2023-05-10T01:42:09;6.30;;;4.13;;
62990;SDS011;49084;48.204;16.202;2023-05-10T01:47:15;3.30;;;2.78;;
62990;SDS011;49084;48.204;16.202;2023-05-10T01:49:49;3.70;;;2.47;;
62990;SDS011;49084;48.204;16.202;2023-05-10T01:52:18;3.03;;;2.50;;
62990;SDS011;49084;48.204;16.202;2023-05-10T01:54:48;5.23;;;2.37;;
62990;SDS011;49084;48.204;16.202;2023-05-10T01:57:18;2.85;;;2.65;;
62990;SDS011;49084;48.204;16.202;2023-05-10T01:59:47;5.18;;;2.65;;
62990;SDS011;49084;48.204;16.202;2023-05-10T02:02:15;7.15;;;2.97;;
62990;SDS011;49084;48.204;16.202;2023-05-10T02:04:45;9.60;;;2.88;;
62990;SDS011;49084;48.204;16.202;2023-05-10T02:07:12;3.20;;;2.60;;
62990;SDS011;49084;48.204;16.202;2023-05-10T02:09:39;4.97;;;2.60;;
62990;SDS011;49084;48.204;16.202;2023-05-10T02:12:08;3.35;;;2.80;;
62990;SDS011;49084;48.204;16.202;2023-05-10T02:14:36;6.70;;;3.03;;
62990;SDS011;49084;48.204;16.202;2023-05-10T02:17:03;3.13;;;2.83;;
62990;SDS011;49084;48.204;16.202;2023-05-10T02:19:31;4.72;;;3.00;;
62990;SDS011;49084;48.204;16.202;2023-05-10T02:21:58;4.70;;;2.92;;
62990;SDS011;49084;48.204;16.202;2023-05-10T02:24:25;5.45;;;2.95;;
62990;SDS011;49084;48.204;16.202;2023-05-10T02:26:53;3.78;;;2.80;;
62990;SDS011;49084;48.204;16.202;2023-05-10T02:29:21;5.28;;;2.70;;
62990;SDS011;49084;48.204;16.202;2023-05-10T02:31:49;3.90;;;3.00;;
62990;SDS011;49084;48.204;16.202;2023-05-10T02:34:18;3.67;;;2.72;;
62990;SDS011;49084;48.204;16.202;2023-05-10T02:36:46;5.00;;;3.03;;
62990;SDS011;49084;48.204;16.202;2023-05-10T02:39:13;4.47;;;3.03;;
62990;SDS011;49084;48.204;16.202;2023-05-10T02:41:40;8.52;;;3.55;;
62990;SDS011;49084;48.204;16.202;2023-05-10T02:44:08;5.93;;;3.78;;
62990;SDS011;49084;48.204;16.202;2023-05-10T02:46:34;3.92;;;3.20;;
62990;SDS011;49084;48.204;16.202;2023-05-10T02:49:01;5.18;;;3.03;;
62990;SDS011;49084;48.204;16.202;2023-05-10T02:51:28;4.90;;;3.17;;
62990;SDS011;49084;48.204;16.202;2023-05-10T02:53:57;4.55;;;3.65;;
62990;SDS011;49084;48.204;16.202;2023-05-10T02:56:31;5.03;;;3.30;;
62990;SDS011;49084;48.204;16.202;2023-05-10T02:58:59;4.60;;;3.33;;
62990;SDS011;49084;48.204;16.202;2023-05-10T03:01:25;9.90;;;3.58;;
62990;SDS011;49084;48.204;16.202;2023-05-10T03:03:50;7.15;;;4.68;;
62990;SDS011;49084;48.204;16.202;2023-05-10T03:06:16;4.78;;;3.38;;
62990;SDS011;49084;48.204;16.202;2023-05-10T03:08:42;5.32;;;3.10;;
62990;SDS011;49084;48.204;16.202;2023-05-10T03:14:07;5.72;;;3.55;;
62990;SDS011;49084;48.204;16.202;2023-05-10T03:16:45;6.82;;;3.60;;
62990;SDS011;49084;48.204;16.202;2023-05-10T03:19:56;4.90;;;3.08;;
62990;SDS011;49084;48.204;16.202;2023-05-10T03:22:10;5.82;;;3.90;;
62990;SDS011;49084;48.204;16.202;2023-05-10T03:24:37;4.80;;;3.53;;
62990;SDS011;49084;48.204;16.202;2023-05-10T03:27:06;4.32;;;3.92;;
62990;SDS011;49084;48.204;16.202;2023-05-10T03:29:33;7.47;;;3.92;;
62990;SDS011;49084;48.204;16.202;2023-05-10T03:31:59;8.98;;;3.58;;
62990;SDS011;49084;48.204;16.202;2023-05-10T03:34:25;6.32;;;3.63;;
62990;SDS011;49084;48.204;16.202;2023-05-10T03:36:51;7.95;;;3.88;;
62990;SDS011;49084;48.204;16.202;2023-05-10T03:39:17;5.18;;;3.40;;
62990;SDS011;49084;48.204;16.202;2023-05-10T03:41:43;7.70;;;3.83;;
62990;SDS011;49084;48.204;16.202;2023-05-10T03:44:09;5.43;;;3.70;;
62990;SDS011;49084;48.204;16.202;2023-05-10T03:46:34;7.18;;;3.92;;
62990;SDS011;49084;48.204;16.202;2023-05-10T03:49:00;6.38;;;3.50;;
62990;SDS011;49084;48.204;16.202;2023-05-10T03:51:26;13.75;;;4.07;;
62990;SDS011;49084;48.204;16.202;2023-05-10T03:53:53;6.60;;;4.20;;
62990;SDS011;49084;48.204;16.202;2023-05-10T03:56:19;9.27;;;3.97;;
62990;SDS011;49084;48.204;16.202;2023-05-10T03:58:46;7.32;;;4.15;;
62990;SDS011;49084;48.204;16.202;2023-05-10T04:01:11;6.53;;;3.67;;
62990;SDS011;49084;48.204;16.202;2023-05-10T04:03:37;9.38;;;3.95;;
62990;SDS011;49084;48.204;16.202;2023-05-10T04:06:03;6.55;;;3.85;;
62990;SDS011;49084;48.204;16.202;2023-05-10T04:08:29;7.00;;;4.60;;
62990;SDS011;49084;48.204;16.202;2023-05-10T04:11:04;5.63;;;3.90;;
62990;SDS011;49084;48.204;16.202;2023-05-10T04:13:31;5.28;;;3.75;;
62990;SDS011;49084;48.204;16.202;2023-05-10T04:15:57;12.60;;;3.85;;
62990;SDS011;49084;48.204;16.202;2023-05-10T04:18:22;8.40;;;4.72;;
62990;SDS011;49084;48.204;16.202;2023-05-10T04:20:48;4.85;;;3.97;;
62990;SDS011;49084;48.204;16.202;2023-05-10T04:23:14;7.35;;;5.38;;
62990;SDS011;49084;48.204;16.202;2023-05-10T04:25:41;13.65;;;4.18;;
62990;SDS011;49084;48.204;16.202;2023-05-10T04:28:07;6.57;;;4.07;;
62990;SDS011;49084;48.204;16.202;2023-05-10T04:30:33;7.28;;;4.47;;
62990;SDS011;49084;48.204;16.202;2023-05-10T04:32:59;7.38;;;4.57;;
62990;SDS011;49084;48.204;16.202;2023-05-10T04:35:26;4.65;;;3.83;;
62990;SDS011;49084;48.204;16.202;2023-05-10T04:37:53;6.95;;;4.25;;
62990;SDS011;49084;48.204;16.202;2023-05-10T04:40:19;6.57;;;3.92;;
62990;SDS011;49084;48.204;16.202;2023-05-10T04:42:45;7.75;;;3.95;;
62990;SDS011;49084;48.204;16.202;2023-05-10T04:45:11;6.50;;;4.05;;
62990;SDS011;49084;48.204;16.202;2023-05-10T04:47:36;8.57;;;3.92;;
62990;SDS011;49084;48.204;16.202;2023-05-10T04:50:02;6.43;;;4.10;;
62990;SDS011;49084;48.204;16.202;2023-05-10T04:52:28;7.20;;;3.97;;
62990;SDS011;49084;48.204;16.202;2023-05-10T04:54:54;9.27;;;3.83;;
62990;SDS011;49084;48.204;16.202;2023-05-10T04:57:20;5.65;;;3.95;;
62990;SDS011;49084;48.204;16.202;2023-05-10T04:59:46;8.13;;;3.80;;
62990;SDS011;49084;48.204;16.202;2023-05-10T05:02:11;7.53;;;4.45;;
62990;SDS011;49084;48.204;16.202;2023-05-10T05:04:37;4.20;;;3.55;;
62990;SDS011;49084;48.204;16.202;2023-05-10T05:07:03;9.43;;;3.88;;
62990;SDS011;49084;48.204;16.202;2023-05-10T05:09:28;9.32;;;4.10;;
62990;SDS011;49084;48.204;16.202;2023-05-10T05:11:54;7.72;;;3.92;;
62990;SDS011;49084;48.204;16.202;2023-05-10T05:14:20;6.35;;;3.70;;
62990;SDS011;49084;48.204;16.202;2023-05-10T05:16:50;4.93;;;3.65;;
62990;SDS011;49084;48.204;16.202;2023-05-10T05:19:18;4.70;;;3.80;;
62990;SDS011;49084;48.204;16.202;2023-05-10T05:21:44;5.57;;;3.90;;
62990;SDS011;49084;48.204;16.202;2023-05-10T05:24:10;6.65;;;3.90;;
62990;SDS011;49084;48.204;16.202;2023-05-10T05:26:37;5.95;;;3.95;;
62990;SDS011;49084;48.204;16.202;2023-05-10T05:29:03;6.57;;;4.13;;
62990;SDS011;49084;48.204;16.202;2023-05-10T05:31:29;8.07;;;4.22;;
62990;SDS011;49084;48.204;16.202;2023-05-10T05:33:55;4.38;;;3.63;;
62990;SDS011;49084;48.204;16.202;2023-05-10T05:36:21;5.03;;;3.50;;
62990;SDS011;49084;48.204;16.202;2023-05-10T05:38:46;5.40;;;4.20;;
62990;SDS011;49084;48.204;16.202;2023-05-10T05:41:13;6.93;;;3.88;;
62990;SDS011;49084;48.204;16.202;2023-05-10T05:43:38;5.15;;;4.07;;
62990;SDS011;49084;48.204;16.202;2023-05-10T05:46:04;4.07;;;3.67;;
62990;SDS011;49084;48.204;16.202;2023-05-10T05:48:30;8.05;;;3.47;;
62990;SDS011;49084;48.204;16.202;2023-05-10T05:50:56;7.38;;;4.05;;
62990;SDS011;49084;48.204;16.202;2023-05-10T05:53:22;3.67;;;3.33;;
62990;SDS011;49084;48.204;16.202;2023-05-10T05:55:51;4.90;;;3.97;;
62990;SDS011;49084;48.204;16.202;2023-05-10T05:58:21;9.05;;;4.03;;
62990;SDS011;49084;48.204;16.202;2023-05-10T06:00:47;3.83;;;3.30;;
62990;SDS011;49084;48.204;16.202;2023-05-10T06:03:12;4.88;;;3.70;;
62990;SDS011;49084;48.204;16.202;2023-05-10T06:05:38;6.40;;;3.50;;
62990;SDS011;49084;48.204;16.202;2023-05-10T06:08:04;4.55;;;3.42;;
62990;SDS011;49084;48.204;16.202;2023-05-10T06:10:30;5.47;;;3.45;;
62990;SDS011;49084;48.204;16.202;2023-05-10T06:12:55;7.38;;;3.65;;
62990;SDS011;49084;48.204;16.202;2023-05-10T06:15:21;3.75;;;2.85;;
62990;SDS011;49084;48.204;16.202;2023-05-10T06:17:47;6.25;;;3.42;;
62990;SDS011;49084;48.204;16.202;2023-05-10T06:20:14;4.43;;;3.13;;
62990;SDS011;49084;48.204;16.202;2023-05-10T06:22:40;5.30;;;2.97;;
62990;SDS011;49084;48.204;16.202;2023-05-10T06:25:06;5.63;;;2.90;;
62990;SDS011;49084;48.204;16.202;2023-05-10T06:27:32;3.90;;;2.90;;
62990;SDS011;49084;48.204;16.202;2023-05-10T06:29:58;3.92;;;2.67;;
62990;SDS011;49084;48.204;16.202;2023-05-10T06:32:24;5.10;;;2.65;;
62990;SDS011;49084;48.204;16.202;2023-05-10T06:34:50;3.08;;;2.50;;
62990;SDS011;49084;48.204;16.202;2023-05-10T06:37:16;4.40;;;2.78;;
62990;SDS011;49084;48.204;16.202;2023-05-10T06:39:41;6.18;;;2.78;;
62990;SDS011;49084;48.204;16.202;2023-05-10T06:42:07;2.78;;;2.47;;
62990;SDS011;49084;48.204;16.202;2023-05-10T06:44:33;4.78;;;2.60;;
62990;SDS011;49084;48.204;16.202;2023-05-10T06:46:58;6.65;;;3.20;;
62990;SDS011;49084;48.204;16.202;2023-05-10T06:49:24;3.80;;;2.50;;
62990;SDS011;49084;48.204;16.202;2023-05-10T06:51:49;3.13;;;2.50;;
62990;SDS011;49084;48.204;16.202;2023-05-10T06:54:15;3.90;;;2.70;;
62990;SDS011;49084;48.204;16.202;2023-05-10T06:56:41;7.60;;;2.53;;
62990;SDS011;49084;48.204;16.202;2023-05-10T06:59:07;2.83;;;2.55;;
62990;SDS011;49084;48.204;16.202;2023-05-10T07:01:32;5.15;;;2.60;;
62990;SDS011;49084;48.204;16.202;2023-05-10T07:03:58;2.83;;;2.53;;
62990;SDS011;49084;48.204;16.202;2023-05-10T07:06:23;2.35;;;2.15;;
62990;SDS011;49084;48.204;16.202;2023-05-10T07:08:49;2.78;;;2.53;;
62990;SDS011;49084;48.204;16.202;2023-05-10T07:11:15;6.22;;;3.08;;
62990;SDS011;49084;48.204;16.202;2023-05-10T07:13:41;6.85;;;2.80;;
62990;SDS011;49084;48.204;16.202;2023-05-10T07:16:09;2.92;;;2.58;;
62990;SDS011;49084;48.204;16.202;2023-05-10T07:18:35;3.08;;;2.60;;
62990;SDS011;49084;48.204;16.202;2023-05-10T07:21:00;2.72;;;2.45;;
62990;SDS011;49084;48.204;16.202;2023-05-10T07:23:26;3.53;;;2.20;;
62990;SDS011;49084;48.204;16.202;2023-05-10T07:25:52;5.68;;;2.20;;
62990;SDS011;49084;48.204;16.202;2023-05-10T07:28:18;2.05;;;1.90;;
62990;SDS011;49084;48.204;16.202;2023-05-10T07:30:44;5.88;;;2.13;;
62990;SDS011;49084;48.204;16.202;2023-05-10T07:33:11;2.67;;;1.65;;
62990;SDS011;49084;48.204;16.202;2023-05-10T07:35:38;5.07;;;2.92;;
62990;SDS011;49084;48.204;16.202;2023-05-10T07:38:04;3.80;;;2.13;;
62990;SDS011;49084;48.204;16.202;2023-05-10T07:40:29;6.30;;;2.10;;
62990;SDS011;49084;48.204;16.202;2023-05-10T07:42:55;3.03;;;2.33;;
62990;SDS011;49084;48.204;16.202;2023-05-10T07:45:21;4.35;;;2.35;;
62990;SDS011;49084;48.204;16.202;2023-05-10T07:47:47;3.03;;;2.03;;
62990;SDS011;49084;48.204;16.202;2023-05-10T07:50:12;4.72;;;2.60;;
62990;SDS011;49084;48.204;16.202;2023-05-10T07:52:39;3.70;;;1.98;;
62990;SDS011;49084;48.204;16.202;2023-05-10T07:55:04;3.88;;;2.22;;
62990;SDS011;49084;48.204;16.202;2023-05-10T07:57:32;5.72;;;2.35;;
62990;SDS011;49084;48.204;16.202;2023-05-10T08:00:01;2.58;;;1.98;;
62990;SDS011;49084;48.204;16.202;2023-05-10T08:02:27;2.05;;;1.83;;
62990;SDS011;49084;48.204;16.202;2023-05-10T08:04:53;3.97;;;2.00;;
62990;SDS011;49084;48.204;16.202;2023-05-10T08:07:19;2.50;;;2.05;;
62990;SDS011;49084;48.204;16.202;2023-05-10T08:09:44;1.83;;;1.60;;
62990;SDS011;49084;48.204;16.202;2023-05-10T08:12:10;2.85;;;2.40;;
62990;SDS011;49084;48.204;16.202;2023-05-10T08:14:35;2.90;;;2.60;;
62990;SDS011;49084;48.204;16.202;2023-05-10T08:17:04;6.13;;;2.20;;
62990;SDS011;49084;48.204;16.202;2023-05-10T08:19:29;5.20;;;2.88;;
62990;SDS011;49084;48.204;16.202;2023-05-10T08:21:55;4.18;;;2.60;;
62990;SDS011;49084;48.204;16.202;2023-05-10T08:24:21;2.90;;;2.00;;
62990;SDS011;49084;48.204;16.202;2023-05-10T08:26:47;5.65;;;2.50;;
62990;SDS011;49084;48.204;16.202;2023-05-10T08:29:13;4.13;;;2.70;;
62990;SDS011;49084;48.204;16.202;2023-05-10T08:31:39;6.45;;;2.55;;
62990;SDS011;49084;48.204;16.202;2023-05-10T08:34:04;5.32;;;2.38;;
62990;SDS011;49084;48.204;16.202;2023-05-10T08:36:30;7.40;;;2.45;;
62990;SDS011;49084;48.204;16.202;2023-05-10T08:38:57;5.50;;;2.35;;
62990;SDS011;49084;48.204;16.202;2023-05-10T08:41:23;4.80;;;2.80;;
62990;SDS011;49084;48.204;16.202;2023-05-10T08:43:51;3.70;;;3.17;;
62990;SDS011;49084;48.204;16.202;2023-05-10T08:46:19;7.20;;;2.60;;
62990;SDS011;49084;48.204;16.202;2023-05-10T08:48:46;3.63;;;2.20;;
62990;SDS011;49084;48.204;16.202;2023-05-10T08:51:14;2.50;;;2.05;;
62990;SDS011;49084;48.204;16.202;2023-05-10T08:53:46;2.10;;;1.83;;
62990;SDS011;49084;48.204;16.202;2023-05-10T08:56:12;7.07;;;2.00;;
62990;SDS011;49084;48.204;16.202;2023-05-10T08:58:38;4.07;;;1.70;;
62990;SDS011;49084;48.204;16.202;2023-05-10T09:01:05;3.25;;;2.10;;
62990;SDS011;49084;48.204;16.202;2023-05-10T09:03:30;2.35;;;1.73;;
62990;SDS011;49084;48.204;16.202;2023-05-10T09:05:57;3.95;;;2.00;;
62990;SDS011;49084;48.204;16.202;2023-05-10T09:08:23;4.93;;;2.08;;
62990;SDS011;49084;48.204;16.202;2023-05-10T09:10:51;2.17;;;1.98;;
62990;SDS011;49084;48.204;16.202;2023-05-10T09:13:17;3.50;;;2.10;;
62990;SDS011;49084;48.204;16.202;2023-05-10T09:15:44;3.10;;;1.75;;
62990;SDS011;49084;48.204;16.202;2023-05-10T09:18:10;9.32;;;2.30;;
62990;SDS011;49084;48.204;16.202;2023-05-10T09:20:36;2.55;;;2.10;;
62990;SDS011;49084;48.204;16.202;2023-05-10T09:23:02;2.50;;;2.22;;
62990;SDS011;49084;48.204;16.202;2023-05-10T09:25:28;6.50;;;2.40;;
62990;SDS011;49084;48.204;16.202;2023-05-10T09:27:53;9.00;;;1.95;;
62990;SDS011;49084;48.204;16.202;2023-05-10T09:32:50;3.78;;;1.75;;
62990;SDS011;49084;48.204;16.202;2023-05-10T09:35:17;3.80;;;1.80;;
62990;SDS011;49084;48.204;16.202;2023-05-10T09:37:51;4.85;;;1.83;;
62990;SDS011;49084;48.204;16.202;2023-05-10T09:40:22;3.67;;;1.88;;
62990;SDS011;49084;48.204;16.202;2023-05-10T09:45:26;3.97;;;1.77;;
62990;SDS011;49084;48.204;16.202;2023-05-10T09:47:53;2.63;;;1.60;;
62990;SDS011;49084;48.204;16.202;2023-05-10T09:50:19;5.32;;;1.83;;
62990;SDS011;49084;48.204;16.202;2023-05-10T09:52:46;4.10;;;1.38;;
62990;SDS011;49084;48.204;16.202;2023-05-10T09:55:20;3.22;;;1.38;;
62990;SDS011;49084;48.204;16.202;2023-05-10T09:57:58;1.38;;;1.27;;
62990;SDS011;49084;48.204;16.202;2023-05-10T10:00:25;8.77;;;1.20;;
62990;SDS011;49084;48.204;16.202;2023-05-10T10:02:55;3.47;;;1.50;;
62990;SDS011;49084;48.204;16.202;2023-05-10T10:05:33;1.20;;;1.00;;
62990;SDS011;49084;48.204;16.202;2023-05-10T10:08:00;3.20;;;1.02;;
62990;SDS011;49084;48.204;16.202;2023-05-10T10:10:28;7.30;;;1.35;;
62990;SDS011;49084;48.204;16.202;2023-05-10T10:12:55;1.38;;;1.10;;
62990;SDS011;49084;48.204;16.202;2023-05-10T10:15:21;4.88;;;1.30;;
62990;SDS011;49084;48.204;16.202;2023-05-10T10:17:48;5.55;;;1.17;;
62990;SDS011;49084;48.204;16.202;2023-05-10T10:20:14;2.42;;;1.38;;
62990;SDS011;49084;48.204;16.202;2023-05-10T10:22:40;3.28;;;1.00;;
62990;SDS011;49084;48.204;16.202;2023-05-10T10:25:07;4.30;;;1.35;;
62990;SDS011;49084;48.204;16.202;2023-05-10T10:30:17;3.13;;;0.90;;
62990;SDS011;49084;48.204;16.202;2023-05-10T10:35:28;2.67;;;0.77;;
62990;SDS011;49084;48.204;16.202;2023-05-10T10:37:55;1.15;;;0.93;;
62990;SDS011;49084;48.204;16.202;2023-05-10T10:40:28;1.00;;;0.90;;
62990;SDS011;49084;48.204;16.202;2023-05-10T10:42:55;2.53;;;1.02;;
62990;SDS011;49084;48.204;16.202;2023-05-10T10:45:22;3.40;;;0.80;;
62990;SDS011;49084;48.204;16.202;2023-05-10T10:47:48;2.47;;;0.63;;
62990;SDS011;49084;48.204;16.202;2023-05-10T10:50:19;1.15;;;1.05;;
62990;SDS011;49084;48.204;16.202;2023-05-10T10:52:45;0.95;;;0.95;;
62990;SDS011;49084;48.204;16.202;2023-05-10T11:00:22;0.88;;;0.82;;
62990;SDS011;49084;48.204;16.202;2023-05-10T11:07:57;1.63;;;0.80;;
62990;SDS011;49084;48.204;16.202;2023-05-10T11:10:24;0.75;;;0.70;;
62990;SDS011;49084;48.204;16.202;2023-05-10T11:13:00;1.85;;;0.88;;
62990;SDS011;49084;48.204;16.202;2023-05-10T11:15:30;0.82;;;0.82;;
62990;SDS011;49084;48.204;16.202;2023-05-10T11:17:56;3.28;;;0.80;;
62990;SDS011;49084;48.204;16.202;2023-05-10T11:20:21;3.45;;;0.95;;
62990;SDS011;49084;48.204;16.202;2023-05-10T11:22:52;1.00;;;0.88;;
62990;SDS011;49084;48.204;16.202;2023-05-10T11:25:19;1.85;;;0.80;;
62990;SDS011;49084;48.204;16.202;2023-05-10T11:27:46;1.00;;;0.90;;
62990;SDS011;49084;48.204;16.202;2023-05-10T11:30:13;4.28;;;0.98;;
62990;SDS011;49084;48.204;16.202;2023-05-10T11:32:39;1.25;;;1.00;;
62990;SDS011;49084;48.204;16.202;2023-05-10T11:35:09;2.50;;;0.80;;
62990;SDS011;49084;48.204;16.202;2023-05-10T11:37:37;1.27;;;0.90;;
62990;SDS011;49084;48.204;16.202;2023-05-10T11:40:07;0.70;;;0.70;;
62990;SDS011;49084;48.204;16.202;2023-05-10T11:42:35;2.63;;;0.80;;
62990;SDS011;49084;48.204;16.202;2023-05-10T11:45:05;14.00;;;1.52;;
62990;SDS011;49084;48.204;16.202;2023-05-10T11:47:31;4.57;;;0.82;;
62990;SDS011;49084;48.204;16.202;2023-05-10T11:49:57;2.25;;;0.77;;
62990;SDS011;49084;48.204;16.202;2023-05-10T11:52:22;1.10;;;0.90;;
62990;SDS011;49084;48.204;16.202;2023-05-10T11:54:52;1.30;;;0.60;;
62990;SDS011;49084;48.204;16.202;2023-05-10T11:57:19;0.90;;;0.90;;
62990;SDS011;49084;48.204;16.202;2023-05-10T11:59:45;2.05;;;0.95;;
62990;SDS011;49084;48.204;16.202;2023-05-10T12:02:13;4.78;;;0.90;;
62990;SDS011;49084;48.204;16.202;2023-05-10T12:04:39;0.80;;;0.55;;
62990;SDS011;49084;48.204;16.202;2023-05-10T12:07:05;3.00;;;1.20;;
62990;SDS011;49084;48.204;16.202;2023-05-10T12:09:30;0.70;;;0.70;;
62990;SDS011;49084;48.204;16.202;2023-05-10T12:11:56;1.10;;;1.00;;
62990;SDS011;49084;48.204;16.202;2023-05-10T12:14:22;1.42;;;0.57;;
62990;SDS011;49084;48.204;16.202;2023-05-10T12:16:49;4.00;;;1.00;;
62990;SDS011;49084;48.204;16.202;2023-05-10T12:19:18;1.38;;;0.88;;
62990;SDS011;49084;48.204;16.202;2023-05-10T12:21:45;2.22;;;0.60;;
62990;SDS011;49084;48.204;16.202;2023-05-10T12:24:11;0.80;;;0.60;;
62990;SDS011;49084;48.204;16.202;2023-05-10T12:26:37;3.00;;;0.70;;
62990;SDS011;49084;48.204;16.202;2023-05-10T12:29:13;0.60;;;0.60;;
62990;SDS011;49084;48.204;16.202;2023-05-10T12:31:54;0.73;;;0.60;;
62990;SDS011;49084;48.204;16.202;2023-05-10T12:34:34;2.17;;;0.70;;
62990;SDS011;49084;48.204;16.202;2023-05-10T12:37:03;2.00;;;0.70;;
62990;SDS011;49084;48.204;16.202;2023-05-10T12:39:42;3.30;;;0.50;;
62990;SDS011;49084;48.204;16.202;2023-05-10T12:42:09;0.80;;;0.70;;
62990;SDS011;49084;48.204;16.202;2023-05-10T12:44:36;0.55;;;0.55;;
62990;SDS011;49084;48.204;16.202;2023-05-10T12:47:01;6.60;;;0.40;;
62990;SDS011;49084;48.204;16.202;2023-05-10T12:49:27;0.90;;;0.55;;
62990;SDS011;49084;48.204;16.202;2023-05-10T12:51:53;0.88;;;0.52;;
62990;SDS011;49084;48.204;16.202;2023-05-10T12:54:18;1.48;;;0.52;;
62990;SDS011;49084;48.204;16.202;2023-05-10T12:56:44;2.35;;;0.70;;
62990;SDS011;49084;48.204;16.202;2023-05-10T12:59:10;2.55;;;0.60;;
62990;SDS011;49084;48.204;16.202;2023-05-10T13:01:35;1.08;;;0.45;;
62990;SDS011;49084;48.204;16.202;2023-05-10T13:04:01;2.50;;;0.75;;
62990;SDS011;49084;48.204;16.202;2023-05-10T13:06:26;1.55;;;0.50;;
62990;SDS011;49084;48.204;16.202;2023-05-10T13:08:52;0.93;;;0.60;;
62990;SDS011;49084;48.204;16.202;2023-05-10T13:11:17;2.78;;;0.60;;
62990;SDS011;49084;48.204;16.202;2023-05-10T13:13:44;0.50;;;0.43;;
62990;SDS011;49084;48.204;16.202;2023-05-10T13:16:10;1.98;;;0.60;;
62990;SDS011;49084;48.204;16.202;2023-05-10T13:18:36;3.58;;;0.77;;
62990;SDS011;49084;48.204;16.202;2023-05-10T13:21:01;2.08;;;0.50;;
62990;SDS011;49084;48.204;16.202;2023-05-10T13:23:30;4.85;;;0.60;;
62990;SDS011;49084;48.204;16.202;2023-05-10T13:25:56;1.60;;;0.40;;
62990;SDS011;49084;48.204;16.202;2023-05-10T13:28:21;2.15;;;0.63;;
62990;SDS011;49084;48.204;16.202;2023-05-10T13:30:47;3.30;;;0.70;;
62990;SDS011;49084;48.204;16.202;2023-05-10T13:33:12;0.90;;;0.60;;
62990;SDS011;49084;48.204;16.202;2023-05-10T13:35:38;3.60;;;0.60;;
62990;SDS011;49084;48.204;16.202;2023-05-10T13:38:03;0.52;;;0.52;;
62990;SDS011;49084;48.204;16.202;2023-05-10T13:40:29;2.58;;;0.70;;
62990;SDS011;49084;48.204;16.202;2023-05-10T13:42:55;2.40;;;0.77;;
62990;SDS011;49084;48.204;16.202;2023-05-10T13:45:20;2.28;;;1.30;;
62990;SDS011;49084;48.204;16.202;2023-05-10T13:47:46;2.40;;;1.00;;
62990;SDS011;49084;48.204;16.202;2023-05-10T13:50:12;5.45;;;1.10;;
62990;SDS011;49084;48.204;16.202;2023-05-10T13:52:37;1.05;;;0.85;;
62990;SDS011;49084;48.204;16.202;2023-05-10T13:55:03;1.10;;;1.00;;
62990;SDS011;49084;48.204;16.202;2023-05-10T13:57:29;1.92;;;0.80;;
62990;SDS011;49084;48.204;16.202;2023-05-10T13:59:55;0.85;;;0.82;;
62990;SDS011;49084;48.204;16.202;2023-05-10T14:02:22;2.15;;;1.17;;
62990;SDS011;49084;48.204;16.202;2023-05-10T14:04:48;3.20;;;0.93;;
62990;SDS011;49084;48.204;16.202;2023-05-10T14:07:13;1.17;;;1.05;;
62990;SDS011;49084;48.204;16.202;2023-05-10T14:09:39;1.42;;;0.80;;
62990;SDS011;49084;48.204;16.202;2023-05-10T14:12:04;2.95;;;1.00;;
62990;SDS011;49084;48.204;16.202;2023-05-10T14:14:30;5.13;;;1.13;;
62990;SDS011;49084;48.204;16.202;2023-05-10T14:16:56;2.50;;;1.05;;
62990;SDS011;49084;48.204;16.202;2023-05-10T14:19:21;1.85;;;1.05;;
62990;SDS011;49084;48.204;16.202;2023-05-10T14:21:47;4.18;;;0.80;;
62990;SDS011;49084;48.204;16.202;2023-05-10T14:24:13;2.67;;;1.00;;
62990;SDS011;49084;48.204;16.202;2023-05-10T14:26:38;2.60;;;0.82;;
62990;SDS011;49084;48.204;16.202;2023-05-10T14:29:04;5.03;;;1.35;;
62990;SDS011;49084;48.204;16.202;2023-05-10T14:31:29;2.83;;;1.00;;
62990;SDS011;49084;48.204;16.202;2023-05-10T14:33:55;1.70;;;0.82;;
62990;SDS011;49084;48.204;16.202;2023-05-10T14:36:22;0.98;;;0.70;;
62990;SDS011;49084;48.204;16.202;2023-05-10T14:38:48;1.00;;;0.80;;
62990;SDS011;49084;48.204;16.202;2023-05-10T14:41:14;0.98;;;0.80;;
62990;SDS011;49084;48.204;16.202;2023-05-10T14:43:42;3.75;;;1.02;;
62990;SDS011;49084;48.204;16.202;2023-05-10T14:46:08;4.38;;;1.10;;
62990;SDS011;49084;48.204;16.202;2023-05-10T14:48:33;3.13;;;1.15;;
62990;SDS011;49084;48.204;16.202;2023-05-10T14:50:59;2.00;;;0.85;;
62990;SDS011;49084;48.204;16.202;2023-05-10T14:53:25;0.90;;;0.90;;
62990;SDS011;49084;48.204;16.202;2023-05-10T14:55:51;3.47;;;0.52;;
62990;SDS011;49084;48.204;16.202;2023-05-10T14:58:17;2.47;;;0.63;;
62990;SDS011;49084;48.204;16.202;2023-05-10T15:00:42;6.05;;;0.90;;
62990;SDS011;49084;48.204;16.202;2023-05-10T15:03:08;4.68;;;0.77;;